Verona, Illinois
Current Conditions -  °F | °C
As of 10:15 PM on Sunday 21 Dec 2014 (Local Time) from KC09 Reporting Station
Overcast Overcast  
Wind Chill: 25°   Ceiling: 3700
Heat Index: 34°   Visibility: 7mi
Dew Point: 31°   Wind: 13mph
Humidity: 90%   Direction: 150°SSE
Pressure: 30.02"   Gusts: NA
Location:  41.22°N, 88.5°W
Report Text: KC09 220415Z AUTO 15011KT 7SM OVC037 01/00 A3002 RMK AO2 T00111003
Loading
Personal Weather Stations






























Interactive Weather Map New forecast layout! Learn more

10-Day Weather Forecast

Advertisements
Track Severe Weather on mobile